sensor_id;sensor_type;location;lat;lon;timestamp;P1;durP1;ratioP1;P2;durP2;ratioP2
48941;SDS011;35340;52.378;4.648;2022-10-16T00:02:13;3.60;;;1.60;;
48941;SDS011;35340;52.378;4.648;2022-10-16T00:04:57;3.92;;;1.80;;
48941;SDS011;35340;52.378;4.648;2022-10-16T00:07:22;3.88;;;2.00;;
48941;SDS011;35340;52.378;4.648;2022-10-16T00:09:48;3.60;;;1.65;;
48941;SDS011;35340;52.378;4.648;2022-10-16T00:12:13;4.13;;;1.83;;
48941;SDS011;35340;52.378;4.648;2022-10-16T00:14:48;2.50;;;1.33;;
48941;SDS011;35340;52.378;4.648;2022-10-16T00:17:15;3.40;;;1.90;;
48941;SDS011;35340;52.378;4.648;2022-10-16T00:19:40;4.45;;;1.70;;
48941;SDS011;35340;52.378;4.648;2022-10-16T00:22:06;2.88;;;1.50;;
48941;SDS011;35340;52.378;4.648;2022-10-16T00:24:31;4.03;;;1.90;;
48941;SDS011;35340;52.378;4.648;2022-10-16T00:26:56;2.78;;;1.67;;
48941;SDS011;35340;52.378;4.648;2022-10-16T00:29:22;2.58;;;1.58;;
48941;SDS011;35340;52.378;4.648;2022-10-16T00:34:37;2.95;;;1.90;;
48941;SDS011;35340;52.378;4.648;2022-10-16T00:37:03;3.45;;;1.52;;
48941;SDS011;35340;52.378;4.648;2022-10-16T00:52:57;2.30;;;1.35;;
48941;SDS011;35340;52.378;4.648;2022-10-16T00:55:26;3.08;;;1.40;;
48941;SDS011;35340;52.378;4.648;2022-10-16T00:57:53;2.53;;;1.25;;
48941;SDS011;35340;52.378;4.648;2022-10-16T01:03:49;2.92;;;1.50;;
48941;SDS011;35340;52.378;4.648;2022-10-16T01:40:53;2.47;;;1.43;;
48941;SDS011;35340;52.378;4.648;2022-10-16T01:43:27;2.08;;;1.25;;
48941;SDS011;35340;52.378;4.648;2022-10-16T01:45:57;1.92;;;1.30;;
48941;SDS011;35340;52.378;4.648;2022-10-16T01:55:07;2.58;;;1.10;;
48941;SDS011;35340;52.378;4.648;2022-10-16T02:03:02;1.95;;;1.20;;
48941;SDS011;35340;52.378;4.648;2022-10-16T02:11:33;2.53;;;1.40;;
48941;SDS011;35340;52.378;4.648;2022-10-16T02:17:23;1.67;;;1.00;;
48941;SDS011;35340;52.378;4.648;2022-10-16T02:22:58;2.33;;;1.10;;
48941;SDS011;35340;52.378;4.648;2022-10-16T02:42:31;1.73;;;1.02;;
48941;SDS011;35340;52.378;4.648;2022-10-16T03:03:26;1.73;;;1.00;;
48941;SDS011;35340;52.378;4.648;2022-10-16T03:05:52;1.77;;;1.00;;
48941;SDS011;35340;52.378;4.648;2022-10-16T03:31:01;1.23;;;0.80;;
48941;SDS011;35340;52.378;4.648;2022-10-16T03:43:42;1.63;;;1.10;;
48941;SDS011;35340;52.378;4.648;2022-10-16T04:03:31;2.28;;;1.10;;
48941;SDS011;35340;52.378;4.648;2022-10-16T04:05:56;1.17;;;0.70;;
48941;SDS011;35340;52.378;4.648;2022-10-16T04:11:48;1.30;;;0.80;;
48941;SDS011;35340;52.378;4.648;2022-10-16T04:18:44;1.00;;;0.60;;
48941;SDS011;35340;52.378;4.648;2022-10-16T04:21:10;1.55;;;0.82;;
48941;SDS011;35340;52.378;4.648;2022-10-16T04:23:35;1.85;;;0.90;;
48941;SDS011;35340;52.378;4.648;2022-10-16T04:26:01;1.00;;;0.70;;
48941;SDS011;35340;52.378;4.648;2022-10-16T04:28:26;1.88;;;0.73;;
48941;SDS011;35340;52.378;4.648;2022-10-16T04:30:52;1.38;;;0.80;;
48941;SDS011;35340;52.378;4.648;2022-10-16T04:33:17;0.95;;;0.80;;
48941;SDS011;35340;52.378;4.648;2022-10-16T04:35:42;1.88;;;0.70;;
48941;SDS011;35340;52.378;4.648;2022-10-16T04:38:08;2.17;;;0.80;;
48941;SDS011;35340;52.378;4.648;2022-10-16T04:40:33;2.55;;;0.88;;
48941;SDS011;35340;52.378;4.648;2022-10-16T04:43:01;1.33;;;0.70;;
48941;SDS011;35340;52.378;4.648;2022-10-16T04:45:27;1.60;;;0.90;;
48941;SDS011;35340;52.378;4.648;2022-10-16T04:47:52;1.10;;;0.70;;
48941;SDS011;35340;52.378;4.648;2022-10-16T04:50:17;1.98;;;0.70;;
48941;SDS011;35340;52.378;4.648;2022-10-16T04:52:43;1.63;;;1.02;;
48941;SDS011;35340;52.378;4.648;2022-10-16T04:55:08;1.88;;;0.80;;
48941;SDS011;35340;52.378;4.648;2022-10-16T04:57:33;1.60;;;0.80;;
48941;SDS011;35340;52.378;4.648;2022-10-16T04:59:59;1.63;;;0.70;;
48941;SDS011;35340;52.378;4.648;2022-10-16T05:02:24;0.93;;;0.57;;
48941;SDS011;35340;52.378;4.648;2022-10-16T05:04:51;1.75;;;0.82;;
48941;SDS011;35340;52.378;4.648;2022-10-16T05:07:16;1.75;;;0.85;;
48941;SDS011;35340;52.378;4.648;2022-10-16T05:09:42;1.35;;;0.65;;
48941;SDS011;35340;52.378;4.648;2022-10-16T05:12:07;1.52;;;0.70;;
48941;SDS011;35340;52.378;4.648;2022-10-16T05:14:32;1.30;;;0.73;;
48941;SDS011;35340;52.378;4.648;2022-10-16T05:16:59;1.40;;;0.65;;
48941;SDS011;35340;52.378;4.648;2022-10-16T05:19:25;0.82;;;0.63;;
48941;SDS011;35340;52.378;4.648;2022-10-16T05:21:50;1.90;;;0.80;;
48941;SDS011;35340;52.378;4.648;2022-10-16T05:24:15;0.82;;;0.60;;
48941;SDS011;35340;52.378;4.648;2022-10-16T05:26:41;1.42;;;0.70;;
48941;SDS011;35340;52.378;4.648;2022-10-16T05:29:06;0.80;;;0.65;;
48941;SDS011;35340;52.378;4.648;2022-10-16T05:31:32;0.70;;;0.57;;
48941;SDS011;35340;52.378;4.648;2022-10-16T05:33:58;1.70;;;0.80;;
48941;SDS011;35340;52.378;4.648;2022-10-16T05:36:26;1.60;;;0.70;;
48941;SDS011;35340;52.378;4.648;2022-10-16T05:38:52;1.10;;;0.70;;
48941;SDS011;35340;52.378;4.648;2022-10-16T05:41:17;1.00;;;0.60;;
48941;SDS011;35340;52.378;4.648;2022-10-16T05:43:49;1.48;;;0.80;;
48941;SDS011;35340;52.378;4.648;2022-10-16T05:46:15;1.42;;;0.70;;
48941;SDS011;35340;52.378;4.648;2022-10-16T05:48:41;1.15;;;0.70;;
48941;SDS011;35340;52.378;4.648;2022-10-16T05:51:07;0.90;;;0.50;;
48941;SDS011;35340;52.378;4.648;2022-10-16T05:53:36;0.80;;;0.70;;
48941;SDS011;35340;52.378;4.648;2022-10-16T05:56:03;1.40;;;0.70;;
48941;SDS011;35340;52.378;4.648;2022-10-16T05:58:31;1.48;;;0.60;;
48941;SDS011;35340;52.378;4.648;2022-10-16T06:01:03;1.20;;;0.60;;
48941;SDS011;35340;52.378;4.648;2022-10-16T06:03:32;1.42;;;0.82;;
48941;SDS011;35340;52.378;4.648;2022-10-16T06:05:57;0.93;;;0.70;;
48941;SDS011;35340;52.378;4.648;2022-10-16T06:08:23;1.95;;;0.60;;
48941;SDS011;35340;52.378;4.648;2022-10-16T06:10:48;0.50;;;0.50;;
48941;SDS011;35340;52.378;4.648;2022-10-16T06:13:14;1.48;;;0.80;;
48941;SDS011;35340;52.378;4.648;2022-10-16T06:15:41;0.98;;;0.60;;
48941;SDS011;35340;52.378;4.648;2022-10-16T06:18:10;2.25;;;0.77;;
48941;SDS011;35340;52.378;4.648;2022-10-16T06:20:35;0.80;;;0.60;;
48941;SDS011;35340;52.378;4.648;2022-10-16T06:23:01;1.63;;;0.70;;
48941;SDS011;35340;52.378;4.648;2022-10-16T06:25:27;1.38;;;0.68;;
48941;SDS011;35340;52.378;4.648;2022-10-16T06:27:52;1.67;;;0.80;;
48941;SDS011;35340;52.378;4.648;2022-10-16T06:30:17;1.33;;;0.60;;
48941;SDS011;35340;52.378;4.648;2022-10-16T06:32:43;1.42;;;0.60;;
48941;SDS011;35340;52.378;4.648;2022-10-16T06:35:08;0.77;;;0.60;;
48941;SDS011;35340;52.378;4.648;2022-10-16T06:37:33;1.90;;;0.55;;
48941;SDS011;35340;52.378;4.648;2022-10-16T06:39:59;1.33;;;0.70;;
48941;SDS011;35340;52.378;4.648;2022-10-16T06:42:25;1.38;;;0.60;;
48941;SDS011;35340;52.378;4.648;2022-10-16T06:44:50;2.88;;;0.50;;
48941;SDS011;35340;52.378;4.648;2022-10-16T06:47:16;1.13;;;0.57;;
48941;SDS011;35340;52.378;4.648;2022-10-16T06:49:41;1.38;;;0.68;;
48941;SDS011;35340;52.378;4.648;2022-10-16T06:52:06;1.52;;;0.80;;
48941;SDS011;35340;52.378;4.648;2022-10-16T06:54:32;4.00;;;0.60;;
48941;SDS011;35340;52.378;4.648;2022-10-16T06:56:58;1.10;;;0.70;;
48941;SDS011;35340;52.378;4.648;2022-10-16T06:59:25;0.85;;;0.60;;
48941;SDS011;35340;52.378;4.648;2022-10-16T07:01:50;1.35;;;0.60;;
48941;SDS011;35340;52.378;4.648;2022-10-16T07:04:15;2.30;;;0.60;;
48941;SDS011;35340;52.378;4.648;2022-10-16T07:06:41;1.10;;;0.50;;
48941;SDS011;35340;52.378;4.648;2022-10-16T07:09:07;0.80;;;0.60;;
48941;SDS011;35340;52.378;4.648;2022-10-16T07:11:35;1.58;;;0.90;;
48941;SDS011;35340;52.378;4.648;2022-10-16T07:14:02;0.77;;;0.60;;
48941;SDS011;35340;52.378;4.648;2022-10-16T07:16:29;0.60;;;0.43;;
48941;SDS011;35340;52.378;4.648;2022-10-16T07:18:57;0.70;;;0.50;;
48941;SDS011;35340;52.378;4.648;2022-10-16T07:21:25;0.95;;;0.47;;
48941;SDS011;35340;52.378;4.648;2022-10-16T07:23:54;0.70;;;0.50;;
48941;SDS011;35340;52.378;4.648;2022-10-16T07:26:24;0.80;;;0.40;;
48941;SDS011;35340;52.378;4.648;2022-10-16T07:28:50;0.60;;;0.50;;
48941;SDS011;35340;52.378;4.648;2022-10-16T07:31:17;1.10;;;0.50;;
48941;SDS011;35340;52.378;4.648;2022-10-16T07:33:44;1.15;;;0.60;;
48941;SDS011;35340;52.378;4.648;2022-10-16T07:36:12;0.80;;;0.50;;
48941;SDS011;35340;52.378;4.648;2022-10-16T07:38:37;0.95;;;0.52;;
48941;SDS011;35340;52.378;4.648;2022-10-16T07:41:04;0.82;;;0.50;;
48941;SDS011;35340;52.378;4.648;2022-10-16T07:43:31;1.33;;;0.60;;
48941;SDS011;35340;52.378;4.648;2022-10-16T07:45:57;0.93;;;0.60;;
48941;SDS011;35340;52.378;4.648;2022-10-16T07:48:23;1.73;;;0.68;;
48941;SDS011;35340;52.378;4.648;2022-10-16T07:50:51;1.55;;;0.50;;
48941;SDS011;35340;52.378;4.648;2022-10-16T07:53:17;1.02;;;0.52;;
48941;SDS011;35340;52.378;4.648;2022-10-16T07:55:42;1.25;;;0.60;;
48941;SDS011;35340;52.378;4.648;2022-10-16T07:58:07;0.45;;;0.40;;
48941;SDS011;35340;52.378;4.648;2022-10-16T08:00:33;2.30;;;0.60;;
48941;SDS011;35340;52.378;4.648;2022-10-16T08:03:01;1.15;;;0.63;;
48941;SDS011;35340;52.378;4.648;2022-10-16T08:05:30;1.13;;;0.70;;
48941;SDS011;35340;52.378;4.648;2022-10-16T08:07:57;2.50;;;0.60;;
48941;SDS011;35340;52.378;4.648;2022-10-16T08:10:23;9.60;;;0.90;;
48941;SDS011;35340;52.378;4.648;2022-10-16T08:12:50;5.30;;;1.00;;
48941;SDS011;35340;52.378;4.648;2022-10-16T08:15:17;8.52;;;1.05;;
48941;SDS011;35340;52.378;4.648;2022-10-16T08:17:42;3.78;;;0.88;;
48941;SDS011;35340;52.378;4.648;2022-10-16T08:20:08;2.50;;;0.93;;
48941;SDS011;35340;52.378;4.648;2022-10-16T08:22:34;14.45;;;3.35;;
48941;SDS011;35340;52.378;4.648;2022-10-16T08:25:00;21.60;;;4.15;;
48941;SDS011;35340;52.378;4.648;2022-10-16T08:27:30;19.02;;;4.32;;
48941;SDS011;35340;52.378;4.648;2022-10-16T08:29:58;13.85;;;4.28;;
48941;SDS011;35340;52.378;4.648;2022-10-16T08:32:24;15.60;;;3.90;;
48941;SDS011;35340;52.378;4.648;2022-10-16T08:34:49;14.07;;;4.03;;
48941;SDS011;35340;52.378;4.648;2022-10-16T08:37:15;16.17;;;4.28;;
48941;SDS011;35340;52.378;4.648;2022-10-16T08:39:40;13.10;;;3.38;;
48941;SDS011;35340;52.378;4.648;2022-10-16T08:47:26;11.48;;;3.10;;
48941;SDS011;35340;52.378;4.648;2022-10-16T08:50:02;7.82;;;3.00;;
48941;SDS011;35340;52.378;4.648;2022-10-16T08:52:35;11.48;;;2.80;;
48941;SDS011;35340;52.378;4.648;2022-10-16T08:55:04;7.07;;;2.40;;
48941;SDS011;35340;52.378;4.648;2022-10-16T08:57:30;10.20;;;2.67;;
48941;SDS011;35340;52.378;4.648;2022-10-16T09:00:05;8.35;;;2.75;;
48941;SDS011;35340;52.378;4.648;2022-10-16T09:02:38;8.05;;;2.47;;
48941;SDS011;35340;52.378;4.648;2022-10-16T09:05:21;5.80;;;1.75;;
48941;SDS011;35340;52.378;4.648;2022-10-16T09:21:41;7.43;;;1.98;;
48941;SDS011;35340;52.378;4.648;2022-10-16T09:24:13;7.70;;;2.00;;
48941;SDS011;35340;52.378;4.648;2022-10-16T09:26:41;7.00;;;2.17;;
48941;SDS011;35340;52.378;4.648;2022-10-16T09:29:09;9.65;;;2.38;;
48941;SDS011;35340;52.378;4.648;2022-10-16T09:31:37;6.25;;;2.33;;
48941;SDS011;35340;52.378;4.648;2022-10-16T09:34:02;6.60;;;2.55;;
48941;SDS011;35340;52.378;4.648;2022-10-16T09:36:32;10.27;;;1.95;;
48941;SDS011;35340;52.378;4.648;2022-10-16T09:39:06;5.38;;;1.83;;
48941;SDS011;35340;52.378;4.648;2022-10-16T09:41:36;5.63;;;2.00;;
48941;SDS011;35340;52.378;4.648;2022-10-16T09:44:04;4.70;;;1.70;;
48941;SDS011;35340;52.378;4.648;2022-10-16T09:46:42;7.38;;;1.92;;
48941;SDS011;35340;52.378;4.648;2022-10-16T09:49:21;5.80;;;2.17;;
48941;SDS011;35340;52.378;4.648;2022-10-16T09:51:46;7.15;;;2.20;;
48941;SDS011;35340;52.378;4.648;2022-10-16T09:54:14;6.38;;;2.08;;
48941;SDS011;35340;52.378;4.648;2022-10-16T09:56:41;4.97;;;1.80;;
48941;SDS011;35340;52.378;4.648;2022-10-16T10:01:40;3.80;;;1.63;;
48941;SDS011;35340;52.378;4.648;2022-10-16T10:04:09;5.05;;;1.85;;
48941;SDS011;35340;52.378;4.648;2022-10-16T10:06:43;5.70;;;1.70;;
48941;SDS011;35340;52.378;4.648;2022-10-16T10:09:23;4.32;;;1.70;;
48941;SDS011;35340;52.378;4.648;2022-10-16T10:11:54;4.93;;;1.58;;
48941;SDS011;35340;52.378;4.648;2022-10-16T10:17:17;5.35;;;2.10;;
48941;SDS011;35340;52.378;4.648;2022-10-16T10:22:58;6.00;;;1.75;;
48941;SDS011;35340;52.378;4.648;2022-10-16T10:44:16;6.60;;;1.70;;
48941;SDS011;35340;52.378;4.648;2022-10-16T10:54:59;4.22;;;1.67;;
48941;SDS011;35340;52.378;4.648;2022-10-16T11:05:27;4.05;;;1.60;;
48941;SDS011;35340;52.378;4.648;2022-10-16T11:08:02;4.60;;;1.48;;
48941;SDS011;35340;52.378;4.648;2022-10-16T11:10:44;9.45;;;1.60;;
48941;SDS011;35340;52.378;4.648;2022-10-16T11:14:15;4.47;;;1.58;;
48941;SDS011;35340;52.378;4.648;2022-10-16T11:16:43;4.30;;;1.40;;
48941;SDS011;35340;52.378;4.648;2022-10-16T11:19:20;4.07;;;1.52;;
48941;SDS011;35340;52.378;4.648;2022-10-16T11:22:15;4.40;;;1.50;;
48941;SDS011;35340;52.378;4.648;2022-10-16T11:24:45;4.35;;;1.50;;
48941;SDS011;35340;52.378;4.648;2022-10-16T11:27:19;5.50;;;1.42;;
48941;SDS011;35340;52.378;4.648;2022-10-16T11:30:02;4.68;;;1.70;;
48941;SDS011;35340;52.378;4.648;2022-10-16T11:32:32;4.82;;;1.33;;
48941;SDS011;35340;52.378;4.648;2022-10-16T11:35:07;4.68;;;1.60;;
48941;SDS011;35340;52.378;4.648;2022-10-16T11:37:41;6.10;;;1.63;;
48941;SDS011;35340;52.378;4.648;2022-10-16T11:43:15;3.50;;;1.58;;
48941;SDS011;35340;52.378;4.648;2022-10-16T11:45:46;3.22;;;1.30;;
48941;SDS011;35340;52.378;4.648;2022-10-16T11:48:32;6.30;;;1.60;;
48941;SDS011;35340;52.378;4.648;2022-10-16T11:51:06;4.82;;;1.23;;
48941;SDS011;35340;52.378;4.648;2022-10-16T11:53:45;3.97;;;1.50;;
48941;SDS011;35340;52.378;4.648;2022-10-16T11:56:32;5.85;;;1.40;;
48941;SDS011;35340;52.378;4.648;2022-10-16T11:59:46;3.63;;;1.40;;
48941;SDS011;35340;52.378;4.648;2022-10-16T12:04:49;2.83;;;1.23;;
48941;SDS011;35340;52.378;4.648;2022-10-16T12:07:27;5.45;;;1.45;;
48941;SDS011;35340;52.378;4.648;2022-10-16T12:10:23;4.68;;;1.48;;
48941;SDS011;35340;52.378;4.648;2022-10-16T12:12:49;4.47;;;1.35;;
48941;SDS011;35340;52.378;4.648;2022-10-16T12:15:22;6.25;;;1.60;;
48941;SDS011;35340;52.378;4.648;2022-10-16T12:17:55;8.30;;;1.73;;
48941;SDS011;35340;52.378;4.648;2022-10-16T12:20:22;13.05;;;2.17;;
48941;SDS011;35340;52.378;4.648;2022-10-16T12:23:02;9.27;;;1.98;;
48941;SDS011;35340;52.378;4.648;2022-10-16T12:25:31;17.75;;;2.40;;
48941;SDS011;35340;52.378;4.648;2022-10-16T12:28:17;14.43;;;2.17;;
48941;SDS011;35340;52.378;4.648;2022-10-16T12:30:55;11.63;;;1.88;;
48941;SDS011;35340;52.378;4.648;2022-10-16T12:33:32;34.92;;;4.63;;
48941;SDS011;35340;52.378;4.648;2022-10-16T12:36:00;8.82;;;2.10;;
48941;SDS011;35340;52.378;4.648;2022-10-16T12:38:48;13.82;;;2.20;;
48941;SDS011;35340;52.378;4.648;2022-10-16T12:41:34;7.80;;;2.03;;
48941;SDS011;35340;52.378;4.648;2022-10-16T12:44:03;15.43;;;2.17;;
48941;SDS011;35340;52.378;4.648;2022-10-16T12:49:04;16.80;;;2.25;;
48941;SDS011;35340;52.378;4.648;2022-10-16T12:51:39;10.40;;;2.22;;
48941;SDS011;35340;52.378;4.648;2022-10-16T12:59:46;8.52;;;1.77;;
48941;SDS011;35340;52.378;4.648;2022-10-16T13:03:03;11.18;;;1.95;;
48941;SDS011;35340;52.378;4.648;2022-10-16T13:08:33;15.70;;;1.98;;
48941;SDS011;35340;52.378;4.648;2022-10-16T13:22:39;8.63;;;1.63;;
48941;SDS011;35340;52.378;4.648;2022-10-16T13:28:05;7.47;;;1.90;;
48941;SDS011;35340;52.378;4.648;2022-10-16T13:30:38;8.60;;;2.03;;
48941;SDS011;35340;52.378;4.648;2022-10-16T13:33:14;8.27;;;1.50;;
48941;SDS011;35340;52.378;4.648;2022-10-16T13:35:49;5.80;;;1.50;;
48941;SDS011;35340;52.378;4.648;2022-10-16T13:38:18;7.78;;;1.70;;
48941;SDS011;35340;52.378;4.648;2022-10-16T13:40:49;7.10;;;1.60;;
48941;SDS011;35340;52.378;4.648;2022-10-16T13:43:35;7.30;;;1.70;;
48941;SDS011;35340;52.378;4.648;2022-10-16T13:46:21;4.55;;;1.63;;
48941;SDS011;35340;52.378;4.648;2022-10-16T13:48:58;6.70;;;2.20;;
48941;SDS011;35340;52.378;4.648;2022-10-16T13:51:29;8.52;;;1.65;;
48941;SDS011;35340;52.378;4.648;2022-10-16T13:53:56;4.97;;;1.20;;
48941;SDS011;35340;52.378;4.648;2022-10-16T13:56:24;4.82;;;1.30;;
48941;SDS011;35340;52.378;4.648;2022-10-16T13:59:02;4.68;;;1.50;;
48941;SDS011;35340;52.378;4.648;2022-10-16T14:01:29;4.95;;;1.50;;
48941;SDS011;35340;52.378;4.648;2022-10-16T14:04:07;6.10;;;1.80;;
48941;SDS011;35340;52.378;4.648;2022-10-16T14:06:35;6.22;;;1.50;;
48941;SDS011;35340;52.378;4.648;2022-10-16T14:09:06;5.18;;;1.40;;
48941;SDS011;35340;52.378;4.648;2022-10-16T14:11:46;4.25;;;1.42;;
48941;SDS011;35340;52.378;4.648;2022-10-16T14:14:14;8.15;;;1.88;;
48941;SDS011;35340;52.378;4.648;2022-10-16T14:16:41;7.10;;;1.45;;
48941;SDS011;35340;52.378;4.648;2022-10-16T14:19:17;4.47;;;1.60;;
48941;SDS011;35340;52.378;4.648;2022-10-16T14:21:43;6.65;;;1.58;;
48941;SDS011;35340;52.378;4.648;2022-10-16T14:24:12;3.97;;;1.40;;
48941;SDS011;35340;52.378;4.648;2022-10-16T14:26:42;6.95;;;1.60;;
48941;SDS011;35340;52.378;4.648;2022-10-16T14:29:13;4.63;;;1.20;;
48941;SDS011;35340;52.378;4.648;2022-10-16T14:31:42;4.68;;;1.35;;
48941;SDS011;35340;52.378;4.648;2022-10-16T14:34:26;5.75;;;1.48;;
48941;SDS011;35340;52.378;4.648;2022-10-16T14:37:00;8.88;;;1.52;;
48941;SDS011;35340;52.378;4.648;2022-10-16T14:39:32;9.20;;;1.63;;
48941;SDS011;35340;52.378;4.648;2022-10-16T14:41:58;10.80;;;1.50;;
48941;SDS011;35340;52.378;4.648;2022-10-16T14:44:26;4.88;;;1.40;;
48941;SDS011;35340;52.378;4.648;2022-10-16T14:46:55;5.05;;;1.25;;
48941;SDS011;35340;52.378;4.648;2022-10-16T14:49:20;6.20;;;1.50;;
48941;SDS011;35340;52.378;4.648;2022-10-16T14:51:47;6.50;;;1.90;;
48941;SDS011;35340;52.378;4.648;2022-10-16T14:54:16;6.88;;;1.35;;
48941;SDS011;35340;52.378;4.648;2022-10-16T14:56:45;4.55;;;1.60;;
48941;SDS011;35340;52.378;4.648;2022-10-16T14:59:37;5.15;;;1.17;;
48941;SDS011;35340;52.378;4.648;2022-10-16T15:05:20;4.90;;;1.30;;
48941;SDS011;35340;52.378;4.648;2022-10-16T15:07:51;5.10;;;1.60;;
48941;SDS011;35340;52.378;4.648;2022-10-16T15:10:18;3.25;;;1.00;;
48941;SDS011;35340;52.378;4.648;2022-10-16T15:12:46;5.68;;;1.42;;
48941;SDS011;35340;52.378;4.648;2022-10-16T15:18:02;3.78;;;1.30;;
48941;SDS011;35340;52.378;4.648;2022-10-16T15:20:29;3.35;;;1.40;;
48941;SDS011;35340;52.378;4.648;2022-10-16T15:22:58;6.80;;;1.60;;
48941;SDS011;35340;52.378;4.648;2022-10-16T15:25:33;3.33;;;1.30;;
48941;SDS011;35340;52.378;4.648;2022-10-16T15:28:07;5.15;;;1.35;;
48941;SDS011;35340;52.378;4.648;2022-10-16T15:30:33;5.10;;;1.50;;
48941;SDS011;35340;52.378;4.648;2022-10-16T15:32:59;5.03;;;1.40;;
48941;SDS011;35340;52.378;4.648;2022-10-16T15:35:25;4.13;;;1.10;;
48941;SDS011;35340;52.378;4.648;2022-10-16T15:37:50;4.00;;;1.17;;
48941;SDS011;35340;52.378;4.648;2022-10-16T15:40:16;4.78;;;1.52;;
48941;SDS011;35340;52.378;4.648;2022-10-16T15:42:43;5.53;;;1.50;;
48941;SDS011;35340;52.378;4.648;2022-10-16T15:45:09;4.45;;;1.30;;
48941;SDS011;35340;52.378;4.648;2022-10-16T15:47:35;4.47;;;1.30;;
48941;SDS011;35340;52.378;4.648;2022-10-16T15:50:01;4.75;;;1.38;;
48941;SDS011;35340;52.378;4.648;2022-10-16T15:52:27;5.20;;;1.42;;
48941;SDS011;35340;52.378;4.648;2022-10-16T15:54:53;5.78;;;1.30;;
48941;SDS011;35340;52.378;4.648;2022-10-16T15:57:19;4.30;;;1.60;;
48941;SDS011;35340;52.378;4.648;2022-10-16T15:59:44;3.55;;;1.52;;
48941;SDS011;35340;52.378;4.648;2022-10-16T16:02:10;4.93;;;1.50;;
48941;SDS011;35340;52.378;4.648;2022-10-16T16:04:35;4.13;;;1.50;;
48941;SDS011;35340;52.378;4.648;2022-10-16T16:07:00;5.20;;;1.60;;
48941;SDS011;35340;52.378;4.648;2022-10-16T16:09:28;4.93;;;1.33;;
48941;SDS011;35340;52.378;4.648;2022-10-16T16:11:54;4.18;;;1.50;;
48941;SDS011;35340;52.378;4.648;2022-10-16T16:14:20;5.70;;;1.48;;
48941;SDS011;35340;52.378;4.648;2022-10-16T16:16:45;4.30;;;1.42;;
48941;SDS011;35340;52.378;4.648;2022-10-16T16:19:11;5.15;;;1.70;;
48941;SDS011;35340;52.378;4.648;2022-10-16T16:21:36;9.52;;;2.42;;
48941;SDS011;35340;52.378;4.648;2022-10-16T16:24:01;11.77;;;2.55;;
48941;SDS011;35340;52.378;4.648;2022-10-16T16:26:33;7.40;;;2.45;;
48941;SDS011;35340;52.378;4.648;2022-10-16T16:29:01;7.80;;;2.28;;
48941;SDS011;35340;52.378;4.648;2022-10-16T16:31:28;4.45;;;1.67;;
48941;SDS011;35340;52.378;4.648;2022-10-16T16:33:55;6.07;;;1.98;;
48941;SDS011;35340;52.378;4.648;2022-10-16T16:36:22;6.43;;;1.40;;
48941;SDS011;35340;52.378;4.648;2022-10-16T16:38:47;4.20;;;1.52;;
48941;SDS011;35340;52.378;4.648;2022-10-16T16:41:26;4.75;;;1.60;;
48941;SDS011;35340;52.378;4.648;2022-10-16T16:43:54;4.78;;;1.50;;
48941;SDS011;35340;52.378;4.648;2022-10-16T16:46:20;3.78;;;1.38;;
48941;SDS011;35340;52.378;4.648;2022-10-16T16:48:46;5.53;;;1.95;;
48941;SDS011;35340;52.378;4.648;2022-10-16T16:51:13;4.40;;;1.65;;
48941;SDS011;35340;52.378;4.648;2022-10-16T16:53:41;4.95;;;1.33;;
48941;SDS011;35340;52.378;4.648;2022-10-16T16:56:07;3.78;;;1.58;;
48941;SDS011;35340;52.378;4.648;2022-10-16T16:58:32;6.15;;;1.33;;
48941;SDS011;35340;52.378;4.648;2022-10-16T17:00:59;4.38;;;1.50;;
48941;SDS011;35340;52.378;4.648;2022-10-16T17:03:26;3.90;;;1.60;;
48941;SDS011;35340;52.378;4.648;2022-10-16T17:06:01;5.18;;;1.65;;
48941;SDS011;35340;52.378;4.648;2022-10-16T17:08:32;7.72;;;1.92;;
48941;SDS011;35340;52.378;4.648;2022-10-16T17:11:00;5.15;;;2.03;;
48941;SDS011;35340;52.378;4.648;2022-10-16T17:13:28;5.53;;;2.00;;
48941;SDS011;35340;52.378;4.648;2022-10-16T17:15:55;7.90;;;2.60;;
48941;SDS011;35340;52.378;4.648;2022-10-16T17:18:22;7.68;;;2.35;;
48941;SDS011;35340;52.378;4.648;2022-10-16T17:20:48;11.93;;;2.97;;
48941;SDS011;35340;52.378;4.648;2022-10-16T17:23:15;13.23;;;3.40;;
48941;SDS011;35340;52.378;4.648;2022-10-16T17:25:42;8.80;;;3.78;;
48941;SDS011;35340;52.378;4.648;2022-10-16T17:28:08;26.63;;;6.88;;
48941;SDS011;35340;52.378;4.648;2022-10-16T17:30:38;24.27;;;7.70;;
48941;SDS011;35340;52.378;4.648;2022-10-16T17:33:05;34.28;;;8.70;;
48941;SDS011;35340;52.378;4.648;2022-10-16T17:35:38;28.05;;;7.63;;
48941;SDS011;35340;52.378;4.648;2022-10-16T17:38:11;20.38;;;6.32;;
48941;SDS011;35340;52.378;4.648;2022-10-16T17:40:39;20.17;;;6.93;;
48941;SDS011;35340;52.378;4.648;2022-10-16T17:43:05;22.88;;;5.88;;
48941;SDS011;35340;52.378;4.648;2022-10-16T17:45:31;20.63;;;6.20;;
48941;SDS011;35340;52.378;4.648;2022-10-16T17:48:15;23.48;;;8.30;;
48941;SDS011;35340;52.378;4.648;2022-10-16T17:50:41;20.02;;;7.00;;
48941;SDS011;35340;52.378;4.648;2022-10-16T17:53:07;22.15;;;6.38;;
48941;SDS011;35340;52.378;4.648;2022-10-16T17:59:00;20.23;;;6.18;;
48941;SDS011;35340;52.378;4.648;2022-10-16T18:01:31;13.68;;;5.28;;
48941;SDS011;35340;52.378;4.648;2022-10-16T18:04:09;14.38;;;5.25;;
48941;SDS011;35340;52.378;4.648;2022-10-16T18:06:37;15.13;;;5.00;;
48941;SDS011;35340;52.378;4.648;2022-10-16T18:09:04;15.52;;;5.00;;
48941;SDS011;35340;52.378;4.648;2022-10-16T18:11:31;19.05;;;5.10;;
48941;SDS011;35340;52.378;4.648;2022-10-16T18:13:59;19.38;;;5.05;;
48941;SDS011;35340;52.378;4.648;2022-10-16T18:16:26;15.32;;;5.03;;
48941;SDS011;35340;52.378;4.648;2022-10-16T18:18:53;14.93;;;4.95;;
48941;SDS011;35340;52.378;4.648;2022-10-16T18:21:24;15.18;;;4.38;;
48941;SDS011;35340;52.378;4.648;2022-10-16T18:27:49;11.80;;;4.63;;
48941;SDS011;35340;52.378;4.648;2022-10-16T18:30:15;18.40;;;4.80;;
48941;SDS011;35340;52.378;4.648;2022-10-16T18:32:40;14.65;;;4.70;;
48941;SDS011;35340;52.378;4.648;2022-10-16T18:35:06;13.82;;;4.60;;
48941;SDS011;35340;52.378;4.648;2022-10-16T18:37:33;12.57;;;4.60;;
48941;SDS011;35340;52.378;4.648;2022-10-16T18:40:00;13.77;;;4.28;;
48941;SDS011;35340;52.378;4.648;2022-10-16T18:42:26;9.88;;;4.22;;
48941;SDS011;35340;52.378;4.648;2022-10-16T18:44:51;15.57;;;4.35;;
48941;SDS011;35340;52.378;4.648;2022-10-16T18:47:17;10.48;;;3.85;;
48941;SDS011;35340;52.378;4.648;2022-10-16T18:49:42;9.43;;;3.63;;
48941;SDS011;35340;52.378;4.648;2022-10-16T18:52:10;12.30;;;4.22;;
48941;SDS011;35340;52.378;4.648;2022-10-16T18:54:36;11.13;;;3.95;;
48941;SDS011;35340;52.378;4.648;2022-10-16T18:57:01;10.77;;;4.05;;
48941;SDS011;35340;52.378;4.648;2022-10-16T18:59:27;14.02;;;3.80;;
48941;SDS011;35340;52.378;4.648;2022-10-16T19:01:52;13.45;;;4.22;;
48941;SDS011;35340;52.378;4.648;2022-10-16T19:04:18;9.57;;;3.80;;
48941;SDS011;35340;52.378;4.648;2022-10-16T19:06:46;10.27;;;3.88;;
48941;SDS011;35340;52.378;4.648;2022-10-16T19:09:14;12.30;;;3.90;;
48941;SDS011;35340;52.378;4.648;2022-10-16T19:18:28;9.25;;;3.72;;
48941;SDS011;35340;52.378;4.648;2022-10-16T19:21:00;7.70;;;3.67;;
48941;SDS011;35340;52.378;4.648;2022-10-16T19:23:44;9.98;;;3.80;;
48941;SDS011;35340;52.378;4.648;2022-10-16T19:26:14;10.15;;;3.90;;
48941;SDS011;35340;52.378;4.648;2022-10-16T19:28:56;9.38;;;3.63;;
48941;SDS011;35340;52.378;4.648;2022-10-16T19:31:24;7.45;;;3.72;;
48941;SDS011;35340;52.378;4.648;2022-10-16T19:33:56;9.57;;;3.75;;
48941;SDS011;35340;52.378;4.648;2022-10-16T19:36:32;7.18;;;3.13;;
48941;SDS011;35340;52.378;4.648;2022-10-16T19:39:00;10.93;;;3.38;;
48941;SDS011;35340;52.378;4.648;2022-10-16T19:41:28;9.95;;;3.28;;
48941;SDS011;35340;52.378;4.648;2022-10-16T19:44:03;7.97;;;3.20;;
48941;SDS011;35340;52.378;4.648;2022-10-16T19:46:31;8.48;;;3.80;;